Portada
METAR-TAF:

METAR-TAF

Aeroports :

Minocqua-Woodruff, Wisconsin, Estats Units d'Amèrica

latitud: 45-56N, longitud: 089-44W, altitud: 496 m

Observació

L'informe es va fer fa 12 minuts, a les 06:55 UTC
Vent 11 kt del Nord amb ràfegues de 17 kt
Temperatura 3°C
Humitat 87%
Pressió 1014 hPa
Visibilitat: 16.1 km
Cel cobert a una alçada de 1500 ft

METAR: KARV 300655Z AUTO 35011G17KT 10SM OVC015 03/01 A2995 RMK AO2 T00250011

Hora: 02:07 (07:07 UTC)


TAF: manca

Observacions i pronòstics meteorològics de més de 4000 aeroports (METAR i TAF).

Les estacions disponibles són els punts grocs i vermells al mapa.

Posi el ratolí al punt desitjat per veure el nom de l'estació.

Feu clic per veure les observacions i els pronòstics meteorològics.

Per canviar el mapa: feu clic els botons verds amb una creu de color negre per apropar; al botó verd amb un guió per allunyar la imatge; o en les fletxes verdes per a mapes adjacents.


METAR-TAF: